sensor_id;sensor_type;location;lat;lon;timestamp;pressure;altitude;pressure_sealevel;temperature;humidity
12247;BME280;6186;52.022;4.692;2023-02-21T00:02:23;102207.84;;;9.44;100.00
12247;BME280;6186;52.022;4.692;2023-02-21T00:05:07;102210.50;;;9.46;100.00
12247;BME280;6186;52.022;4.692;2023-02-21T00:07:51;102213.97;;;9.46;100.00
12247;BME280;6186;52.022;4.692;2023-02-21T00:10:35;102214.88;;;9.47;100.00
12247;BME280;6186;52.022;4.692;2023-02-21T00:13:18;102218.38;;;9.47;100.00
12247;BME280;6186;52.022;4.692;2023-02-21T00:16:02;102221.00;;;9.46;100.00
12247;BME280;6186;52.022;4.692;2023-02-21T00:18:46;102220.13;;;9.45;100.00
12247;BME280;6186;52.022;4.692;2023-02-21T00:21:30;102223.63;;;9.46;100.00
12247;BME280;6186;52.022;4.692;2023-02-21T00:24:16;102226.22;;;9.44;100.00
12247;BME280;6186;52.022;4.692;2023-02-21T00:27:01;102213.09;;;9.41;100.00
12247;BME280;6186;52.022;4.692;2023-02-21T00:29:46;102217.50;;;9.44;100.00
12247;BME280;6186;52.022;4.692;2023-02-21T00:32:30;102228.00;;;9.45;100.00
12247;BME280;6186;52.022;4.692;2023-02-21T00:35:14;102223.59;;;9.43;100.00
12247;BME280;6186;52.022;4.692;2023-02-21T00:37:58;102220.97;;;9.44;100.00
12247;BME280;6186;52.022;4.692;2023-02-21T00:40:42;102217.50;;;9.44;100.00
12247;BME280;6186;52.022;4.692;2023-02-21T00:43:34;102213.09;;;9.41;100.00
12247;BME280;6186;52.022;4.692;2023-02-21T00:46:18;102225.34;;;9.42;100.00
12247;BME280;6186;52.022;4.692;2023-02-21T00:49:03;102221.88;;;9.42;100.00
12247;BME280;6186;52.022;4.692;2023-02-21T00:51:48;102214.88;;;9.44;100.00
12247;BME280;6186;52.022;4.692;2023-02-21T00:54:32;102210.47;;;9.43;100.00
12247;BME280;6186;52.022;4.692;2023-02-21T00:57:16;102214.84;;;9.42;100.00
12247;BME280;6186;52.022;4.692;2023-02-21T01:00:00;102206.97;;;9.42;100.00
12247;BME280;6186;52.022;4.692;2023-02-21T01:02:44;102199.09;;;9.39;100.00
12247;BME280;6186;52.022;4.692;2023-02-21T01:05:28;102200.84;;;9.42;100.00
12247;BME280;6186;52.022;4.692;2023-02-21T01:08:12;102203.47;;;9.40;100.00
12247;BME280;6186;52.022;4.692;2023-02-21T01:10:56;102200.84;;;9.42;100.00
12247;BME280;6186;52.022;4.692;2023-02-21T01:13:40;102195.59;;;9.42;100.00
12247;BME280;6186;52.022;4.692;2023-02-21T01:16:27;102199.06;;;9.42;100.00
12247;BME280;6186;52.022;4.692;2023-02-21T01:19:11;102203.47;;;9.45;100.00
12247;BME280;6186;52.022;4.692;2023-02-21T01:21:55;102188.56;;;9.39;100.00
12247;BME280;6186;52.022;4.692;2023-02-21T01:24:39;102171.06;;;9.32;100.00
12247;BME280;6186;52.022;4.692;2023-02-21T01:27:23;102189.47;;;9.46;100.00
12247;BME280;6186;52.022;4.692;2023-02-21T01:30:07;102190.34;;;9.48;100.00
12247;BME280;6186;52.022;4.692;2023-02-21T01:32:51;102180.69;;;9.47;100.00
12247;BME280;6186;52.022;4.692;2023-02-21T01:35:35;102177.19;;;9.46;100.00
12247;BME280;6186;52.022;4.692;2023-02-21T01:38:19;102166.69;;;9.43;100.00
12247;BME280;6186;52.022;4.692;2023-02-21T01:41:02;102173.69;;;9.47;100.00
12247;BME280;6186;52.022;4.692;2023-02-21T01:44:01;102174.56;;;9.46;100.00
12247;BME280;6186;52.022;4.692;2023-02-21T01:46:45;102180.69;;;9.50;100.00
12247;BME280;6186;52.022;4.692;2023-02-21T01:49:30;102172.81;;;9.48;100.00
12247;BME280;6186;52.022;4.692;2023-02-21T01:52:15;102171.06;;;9.50;100.00
12247;BME280;6186;52.022;4.692;2023-02-21T01:55:00;102169.31;;;9.49;100.00
12247;BME280;6186;52.022;4.692;2023-02-21T01:57:44;102168.44;;;9.50;100.00
12247;BME280;6186;52.022;4.692;2023-02-21T02:00:29;102167.56;;;9.52;100.00
12247;BME280;6186;52.022;4.692;2023-02-21T02:03:16;102151.78;;;9.47;100.00
12247;BME280;6186;52.022;4.692;2023-02-21T02:06:05;102157.91;;;9.52;100.00
12247;BME280;6186;52.022;4.692;2023-02-21T02:08:50;102157.91;;;9.50;100.00
12247;BME280;6186;52.022;4.692;2023-02-21T02:25:59;102157.03;;;9.48;100.00
12247;BME280;6186;52.022;4.692;2023-02-21T02:34:38;102151.78;;;9.50;100.00
12247;BME280;6186;52.022;4.692;2023-02-21T02:42:27;102144.75;;;9.52;100.00
12247;BME280;6186;52.022;4.692;2023-02-21T02:45:00;102143.03;;;9.49;100.00
12247;BME280;6186;52.022;4.692;2023-02-21T02:47:31;102144.75;;;9.52;100.00
12247;BME280;6186;52.022;4.692;2023-02-21T02:49:59;102137.78;;;9.49;100.00
12247;BME280;6186;52.022;4.692;2023-02-21T02:52:26;102148.28;;;9.52;100.00
12247;BME280;6186;52.022;4.692;2023-02-21T02:54:59;102148.28;;;9.54;100.00
12247;BME280;6186;52.022;4.692;2023-02-21T02:57:26;102148.28;;;9.52;100.00
12247;BME280;6186;52.022;4.692;2023-02-21T02:59:52;102144.78;;;9.54;100.00
12247;BME280;6186;52.022;4.692;2023-02-21T03:02:32;102135.16;;;9.51;100.00
12247;BME280;6186;52.022;4.692;2023-02-21T03:05:09;102135.13;;;9.52;100.00
12247;BME280;6186;52.022;4.692;2023-02-21T03:08:03;102140.38;;;9.54;100.00
12247;BME280;6186;52.022;4.692;2023-02-21T03:10:44;102136.00;;;9.55;100.00
12247;BME280;6186;52.022;4.692;2023-02-21T03:13:48;102136.00;;;9.55;100.00
12247;BME280;6186;52.022;4.692;2023-02-21T03:16:25;102134.28;;;9.55;100.00
12247;BME280;6186;52.022;4.692;2023-02-21T03:19:24;102132.53;;;9.56;100.00
12247;BME280;6186;52.022;4.692;2023-02-21T03:21:58;102132.53;;;9.56;100.00
12247;BME280;6186;52.022;4.692;2023-02-21T03:24:25;102135.13;;;9.54;100.00
12247;BME280;6186;52.022;4.692;2023-02-21T03:26:56;102134.28;;;9.54;100.00
12247;BME280;6186;52.022;4.692;2023-02-21T03:29:24;102121.13;;;9.54;100.00
12247;BME280;6186;52.022;4.692;2023-02-21T03:32:04;102129.00;;;9.52;100.00
12247;BME280;6186;52.022;4.692;2023-02-21T03:34:41;102114.13;;;9.49;100.00
12247;BME280;6186;52.022;4.692;2023-02-21T03:37:17;102127.25;;;9.49;100.00
12247;BME280;6186;52.022;4.692;2023-02-21T03:39:42;102133.38;;;9.48;100.00
12247;BME280;6186;52.022;4.692;2023-02-21T03:42:07;102139.50;;;9.50;100.00
12247;BME280;6186;52.022;4.692;2023-02-21T03:44:33;102140.41;;;9.51;100.00
12247;BME280;6186;52.022;4.692;2023-02-21T03:46:58;102135.16;;;9.48;100.00
12247;BME280;6186;52.022;4.692;2023-02-21T03:49:23;102136.88;;;9.49;100.00
12247;BME280;6186;52.022;4.692;2023-02-21T03:51:49;102140.41;;;9.49;100.00
12247;BME280;6186;52.022;4.692;2023-02-21T03:54:14;102141.28;;;9.52;100.00
12247;BME280;6186;52.022;4.692;2023-02-21T03:56:39;102142.13;;;9.50;100.00
12247;BME280;6186;52.022;4.692;2023-02-21T03:59:05;102138.66;;;9.52;100.00
12247;BME280;6186;52.022;4.692;2023-02-21T04:01:30;102135.13;;;9.52;100.00
12247;BME280;6186;52.022;4.692;2023-02-21T04:03:55;102131.63;;;9.52;100.00
12247;BME280;6186;52.022;4.692;2023-02-21T04:06:21;102124.66;;;9.48;100.00
12247;BME280;6186;52.022;4.692;2023-02-21T04:08:46;102132.50;;;9.51;100.00
12247;BME280;6186;52.022;4.692;2023-02-21T04:11:11;102134.25;;;9.50;100.00
12247;BME280;6186;52.022;4.692;2023-02-21T04:13:37;102126.38;;;9.50;100.00
12247;BME280;6186;52.022;4.692;2023-02-21T04:16:03;102117.63;;;9.52;100.00
12247;BME280;6186;52.022;4.692;2023-02-21T04:18:28;102118.50;;;9.50;100.00
12247;BME280;6186;52.022;4.692;2023-02-21T04:20:53;102124.63;;;9.49;100.00
12247;BME280;6186;52.022;4.692;2023-02-21T04:23:19;102130.78;;;9.52;100.00
12247;BME280;6186;52.022;4.692;2023-02-21T04:25:46;102128.13;;;9.50;100.00
12247;BME280;6186;52.022;4.692;2023-02-21T04:28:11;102135.16;;;9.51;100.00
12247;BME280;6186;52.022;4.692;2023-02-21T04:30:37;102129.00;;;9.52;100.00
12247;BME280;6186;52.022;4.692;2023-02-21T04:33:02;102122.00;;;9.49;100.00
12247;BME280;6186;52.022;4.692;2023-02-21T04:35:28;102126.38;;;9.49;100.00
12247;BME280;6186;52.022;4.692;2023-02-21T04:37:53;102125.50;;;9.48;100.00
12247;BME280;6186;52.022;4.692;2023-02-21T04:40:19;102123.75;;;9.47;100.00
12247;BME280;6186;52.022;4.692;2023-02-21T04:42:44;102124.63;;;9.46;100.00
12247;BME280;6186;52.022;4.692;2023-02-21T04:45:10;102112.38;;;9.44;100.00
12247;BME280;6186;52.022;4.692;2023-02-21T04:47:35;102109.72;;;9.48;100.00
12247;BME280;6186;52.022;4.692;2023-02-21T04:50:00;102104.47;;;9.42;100.00
12247;BME280;6186;52.022;4.692;2023-02-21T04:52:26;102117.63;;;9.47;100.00
12247;BME280;6186;52.022;4.692;2023-02-21T04:54:51;102118.50;;;9.47;100.00
12247;BME280;6186;52.022;4.692;2023-02-21T04:57:17;102103.59;;;9.46;100.00
12247;BME280;6186;52.022;4.692;2023-02-21T04:59:42;102077.34;;;9.33;100.00
12247;BME280;6186;52.022;4.692;2023-02-21T05:02:08;102100.09;;;9.44;100.00
12247;BME280;6186;52.022;4.692;2023-02-21T05:04:35;102106.22;;;9.46;100.00
12247;BME280;6186;52.022;4.692;2023-02-21T05:07:00;102101.88;;;9.44;100.00
12247;BME280;6186;52.022;4.692;2023-02-21T05:09:25;102105.34;;;9.44;100.00
12247;BME280;6186;52.022;4.692;2023-02-21T05:11:51;102111.47;;;9.46;100.00
12247;BME280;6186;52.022;4.692;2023-02-21T05:14:16;102108.00;;;9.47;100.00
12247;BME280;6186;52.022;4.692;2023-02-21T05:16:43;102105.34;;;9.49;100.00
12247;BME280;6186;52.022;4.692;2023-02-21T05:19:08;102103.63;;;9.48;100.00
12247;BME280;6186;52.022;4.692;2023-02-21T05:21:35;102094.81;;;9.44;100.00
12247;BME280;6186;52.022;4.692;2023-02-21T05:24:04;102100.09;;;9.47;100.00
12247;BME280;6186;52.022;4.692;2023-02-21T05:26:33;102100.09;;;9.47;100.00
12247;BME280;6186;52.022;4.692;2023-02-21T05:28:59;102106.25;;;9.49;100.00
12247;BME280;6186;52.022;4.692;2023-02-21T05:31:25;102100.97;;;9.49;100.00
12247;BME280;6186;52.022;4.692;2023-02-21T05:33:51;102108.84;;;9.46;100.00
12247;BME280;6186;52.022;4.692;2023-02-21T05:36:16;102115.88;;;9.49;100.00
12247;BME280;6186;52.022;4.692;2023-02-21T05:38:50;102127.25;;;9.49;100.00
12247;BME280;6186;52.022;4.692;2023-02-21T05:41:16;102107.13;;;9.52;100.00
12247;BME280;6186;52.022;4.692;2023-02-21T05:43:45;102110.59;;;9.52;100.00
12247;BME280;6186;52.022;4.692;2023-02-21T05:46:33;102107.13;;;9.52;100.00
12247;BME280;6186;52.022;4.692;2023-02-21T05:49:00;102102.72;;;9.49;100.00
12247;BME280;6186;52.022;4.692;2023-02-21T05:51:30;102095.72;;;9.49;100.00
12247;BME280;6186;52.022;4.692;2023-02-21T05:53:58;102097.47;;;9.50;100.00
12247;BME280;6186;52.022;4.692;2023-02-21T05:56:23;102106.22;;;9.51;100.00
12247;BME280;6186;52.022;4.692;2023-02-21T05:58:48;102107.09;;;9.50;100.00
12247;BME280;6186;52.022;4.692;2023-02-21T06:01:14;102106.25;;;9.49;100.00
12247;BME280;6186;52.022;4.692;2023-02-21T06:03:39;102111.50;;;9.51;100.00
12247;BME280;6186;52.022;4.692;2023-02-21T06:06:05;102108.84;;;9.52;100.00
12247;BME280;6186;52.022;4.692;2023-02-21T06:08:30;102100.97;;;9.54;100.00
12247;BME280;6186;52.022;4.692;2023-02-21T06:10:56;102095.72;;;9.52;100.00
12247;BME280;6186;52.022;4.692;2023-02-21T06:13:21;102107.13;;;9.52;100.00
12247;BME280;6186;52.022;4.692;2023-02-21T06:15:46;102120.25;;;9.52;100.00
12247;BME280;6186;52.022;4.692;2023-02-21T06:18:13;102115.84;;;9.52;100.00
12247;BME280;6186;52.022;4.692;2023-02-21T06:20:39;102131.63;;;9.52;100.00
12247;BME280;6186;52.022;4.692;2023-02-21T06:23:04;102115.00;;;9.52;100.00
12247;BME280;6186;52.022;4.692;2023-02-21T06:25:29;102111.47;;;9.52;100.00
12247;BME280;6186;52.022;4.692;2023-02-21T06:27:55;102099.22;;;9.47;100.00
12247;BME280;6186;52.022;4.692;2023-02-21T06:30:20;102113.25;;;9.54;100.00
12247;BME280;6186;52.022;4.692;2023-02-21T06:32:45;102113.25;;;9.54;100.00
12247;BME280;6186;52.022;4.692;2023-02-21T06:35:11;102119.38;;;9.52;100.00
12247;BME280;6186;52.022;4.692;2023-02-21T06:37:36;102130.75;;;9.55;100.00
12247;BME280;6186;52.022;4.692;2023-02-21T06:40:02;102129.88;;;9.54;100.00
12247;BME280;6186;52.022;4.692;2023-02-21T06:42:29;102129.88;;;9.54;100.00
12247;BME280;6186;52.022;4.692;2023-02-21T06:44:54;102129.88;;;9.54;100.00
12247;BME280;6186;52.022;4.692;2023-02-21T06:47:19;102135.16;;;9.56;100.00
12247;BME280;6186;52.022;4.692;2023-02-21T06:49:45;102134.25;;;9.57;100.00
12247;BME280;6186;52.022;4.692;2023-02-21T06:52:10;102122.00;;;9.52;100.00
12247;BME280;6186;52.022;4.692;2023-02-21T06:54:36;102132.53;;;9.56;100.00
12247;BME280;6186;52.022;4.692;2023-02-21T06:57:02;102131.66;;;9.54;100.00
12247;BME280;6186;52.022;4.692;2023-02-21T06:59:28;102129.88;;;9.54;100.00
12247;BME280;6186;52.022;4.692;2023-02-21T07:01:54;102138.63;;;9.55;100.00
12247;BME280;6186;52.022;4.692;2023-02-21T07:04:19;102136.03;;;9.53;100.00
12247;BME280;6186;52.022;4.692;2023-02-21T07:06:45;102141.28;;;9.59;100.00
12247;BME280;6186;52.022;4.692;2023-02-21T07:09:10;102129.88;;;9.60;100.00
12247;BME280;6186;52.022;4.692;2023-02-21T07:11:35;102129.00;;;9.58;100.00
12247;BME280;6186;52.022;4.692;2023-02-21T07:14:02;102122.00;;;9.56;100.00
12247;BME280;6186;52.022;4.692;2023-02-21T07:16:27;102132.50;;;9.60;100.00
12247;BME280;6186;52.022;4.692;2023-02-21T07:18:53;102136.00;;;9.62;100.00
12247;BME280;6186;52.022;4.692;2023-02-21T07:21:19;102129.00;;;9.60;100.00
12247;BME280;6186;52.022;4.692;2023-02-21T07:23:46;102130.78;;;9.59;100.00
12247;BME280;6186;52.022;4.692;2023-02-21T07:26:12;102133.38;;;9.61;100.00
12247;BME280;6186;52.022;4.692;2023-02-21T07:28:38;102129.00;;;9.63;100.00
12247;BME280;6186;52.022;4.692;2023-02-21T07:31:04;102119.38;;;9.57;100.00
12247;BME280;6186;52.022;4.692;2023-02-21T07:33:30;102122.88;;;9.62;100.00
12247;BME280;6186;52.022;4.692;2023-02-21T07:35:55;102126.38;;;9.64;100.00
12247;BME280;6186;52.022;4.692;2023-02-21T07:38:25;102131.63;;;9.64;100.00
12247;BME280;6186;52.022;4.692;2023-02-21T07:40:56;102135.16;;;9.65;100.00
12247;BME280;6186;52.022;4.692;2023-02-21T07:43:21;102133.38;;;9.67;100.00
12247;BME280;6186;52.022;4.692;2023-02-21T07:45:48;102139.50;;;9.66;100.00
12247;BME280;6186;52.022;4.692;2023-02-21T07:48:13;102129.88;;;9.65;100.00
12247;BME280;6186;52.022;4.692;2023-02-21T07:50:40;102137.75;;;9.68;100.00
12247;BME280;6186;52.022;4.692;2023-02-21T07:53:06;102128.13;;;9.65;100.00
12247;BME280;6186;52.022;4.692;2023-02-21T07:55:31;102138.63;;;9.71;100.00
12247;BME280;6186;52.022;4.692;2023-02-21T07:57:57;102125.50;;;9.73;100.00
12247;BME280;6186;52.022;4.692;2023-02-21T08:00:22;102124.59;;;9.74;100.00
12247;BME280;6186;52.022;4.692;2023-02-21T08:02:49;102127.25;;;9.72;100.00
12247;BME280;6186;52.022;4.692;2023-02-21T08:05:16;102137.75;;;9.72;100.00
12247;BME280;6186;52.022;4.692;2023-02-21T08:07:42;102144.75;;;9.75;100.00
12247;BME280;6186;52.022;4.692;2023-02-21T08:10:07;102135.13;;;9.75;100.00
12247;BME280;6186;52.022;4.692;2023-02-21T08:12:33;102134.22;;;9.75;100.00
12247;BME280;6186;52.022;4.692;2023-02-21T08:14:58;102133.38;;;9.77;100.00
12247;BME280;6186;52.022;4.692;2023-02-21T08:17:24;102126.38;;;9.76;100.00
12247;BME280;6186;52.022;4.692;2023-02-21T08:19:50;102137.75;;;9.80;100.00
12247;BME280;6186;52.022;4.692;2023-02-21T08:22:15;102142.13;;;9.81;100.00
12247;BME280;6186;52.022;4.692;2023-02-21T08:24:40;102143.00;;;9.81;100.00
12247;BME280;6186;52.022;4.692;2023-02-21T08:27:06;102141.28;;;9.80;100.00
12247;BME280;6186;52.022;4.692;2023-02-21T08:29:31;102142.16;;;9.76;100.00
12247;BME280;6186;52.022;4.692;2023-02-21T08:31:56;102143.91;;;9.80;100.00
12247;BME280;6186;52.022;4.692;2023-02-21T08:34:22;102146.50;;;9.79;100.00
12247;BME280;6186;52.022;4.692;2023-02-21T08:36:48;102153.53;;;9.80;100.00
12247;BME280;6186;52.022;4.692;2023-02-21T08:39:14;102143.00;;;9.80;100.00
12247;BME280;6186;52.022;4.692;2023-02-21T08:41:44;102139.50;;;9.78;100.00
12247;BME280;6186;52.022;4.692;2023-02-21T08:44:12;102144.75;;;9.84;100.00
12247;BME280;6186;52.022;4.692;2023-02-21T08:46:40;102142.13;;;9.85;100.00
12247;BME280;6186;52.022;4.692;2023-02-21T08:49:06;102144.75;;;9.87;100.00
12247;BME280;6186;52.022;4.692;2023-02-21T08:51:32;102146.53;;;9.88;100.00
12247;BME280;6186;52.022;4.692;2023-02-21T08:53:58;102146.53;;;9.88;100.00
12247;BME280;6186;52.022;4.692;2023-02-21T08:56:24;102132.47;;;9.84;100.00
12247;BME280;6186;52.022;4.692;2023-02-21T08:58:51;102140.34;;;9.90;100.00
12247;BME280;6186;52.022;4.692;2023-02-21T09:01:19;102130.72;;;9.86;100.00
12247;BME280;6186;52.022;4.692;2023-02-21T09:03:45;102145.63;;;9.89;100.00
12247;BME280;6186;52.022;4.692;2023-02-21T09:06:10;102141.25;;;9.89;100.00
12247;BME280;6186;52.022;4.692;2023-02-21T09:08:36;102134.22;;;9.90;100.00
12247;BME280;6186;52.022;4.692;2023-02-21T09:11:03;102126.34;;;9.84;100.00
12247;BME280;6186;52.022;4.692;2023-02-21T09:13:30;102132.47;;;9.89;100.00
12247;BME280;6186;52.022;4.692;2023-02-21T09:16:01;102135.09;;;9.93;100.00
12247;BME280;6186;52.022;4.692;2023-02-21T09:18:28;102132.47;;;9.96;100.00
12247;BME280;6186;52.022;4.692;2023-02-21T09:20:54;102135.94;;;10.00;100.00
12247;BME280;6186;52.022;4.692;2023-02-21T09:23:23;102130.69;;;10.00;100.00
12247;BME280;6186;52.022;4.692;2023-02-21T09:25:48;102125.44;;;10.00;100.00
12247;BME280;6186;52.022;4.692;2023-02-21T09:28:14;102135.94;;;10.06;100.00
12247;BME280;6186;52.022;4.692;2023-02-21T09:30:40;102129.81;;;10.08;100.00
12247;BME280;6186;52.022;4.692;2023-02-21T09:33:06;102127.19;;;10.10;100.00
12247;BME280;6186;52.022;4.692;2023-02-21T09:35:31;102129.84;;;10.10;100.00
12247;BME280;6186;52.022;4.692;2023-02-21T09:37:58;102121.91;;;10.07;100.00
12247;BME280;6186;52.022;4.692;2023-02-21T09:40:36;102117.50;;;10.09;100.00
12247;BME280;6186;52.022;4.692;2023-02-21T09:43:12;102114.00;;;10.07;100.00
12247;BME280;6186;52.022;4.692;2023-02-21T09:45:40;102114.94;;;10.10;100.00
12247;BME280;6186;52.022;4.692;2023-02-21T09:48:12;102117.53;;;10.13;100.00
12247;BME280;6186;52.022;4.692;2023-02-21T09:50:45;102117.53;;;10.13;100.00
12247;BME280;6186;52.022;4.692;2023-02-21T09:53:21;102115.78;;;10.14;100.00
12247;BME280;6186;52.022;4.692;2023-02-21T09:55:50;102114.03;;;10.11;100.00
12247;BME280;6186;52.022;4.692;2023-02-21T09:58:18;102118.41;;;10.11;100.00
12247;BME280;6186;52.022;4.692;2023-02-21T10:00:44;102115.78;;;10.14;100.00
12247;BME280;6186;52.022;4.692;2023-02-21T10:03:21;102111.38;;;10.14;100.00
12247;BME280;6186;52.022;4.692;2023-02-21T10:08:37;102116.66;;;10.16;100.00
12247;BME280;6186;52.022;4.692;2023-02-21T10:11:36;102122.78;;;10.19;100.00
12247;BME280;6186;52.022;4.692;2023-02-21T10:14:33;102119.25;;;10.22;100.00
12247;BME280;6186;52.022;4.692;2023-02-21T10:17:21;102105.22;;;10.23;100.00
12247;BME280;6186;52.022;4.692;2023-02-21T10:19:54;102108.75;;;10.25;100.00
12247;BME280;6186;52.022;4.692;2023-02-21T10:22:28;102107.84;;;10.26;100.00
12247;BME280;6186;52.022;4.692;2023-02-21T10:24:56;102112.25;;;10.27;100.00
12247;BME280;6186;52.022;4.692;2023-02-21T10:27:25;102108.75;;;10.25;100.00
12247;BME280;6186;52.022;4.692;2023-02-21T10:32:20;102104.38;;;10.21;100.00
12247;BME280;6186;52.022;4.692;2023-02-21T10:34:47;102107.00;;;10.21;100.00
12247;BME280;6186;52.022;4.692;2023-02-21T10:37:32;102107.00;;;10.19;100.00
12247;BME280;6186;52.022;4.692;2023-02-21T10:41:06;102106.16;;;10.16;100.00
12247;BME280;6186;52.022;4.692;2023-02-21T10:43:20;102103.50;;;10.16;100.00
12247;BME280;6186;52.022;4.692;2023-02-21T10:45:58;102100.00;;;10.15;100.00
12247;BME280;6186;52.022;4.692;2023-02-21T10:48:29;102106.13;;;10.17;100.00
12247;BME280;6186;52.022;4.692;2023-02-21T10:53:34;102108.75;;;10.17;100.00
12247;BME280;6186;52.022;4.692;2023-02-21T10:58:47;102092.13;;;10.14;100.00
12247;BME280;6186;52.022;4.692;2023-02-21T11:01:17;102104.38;;;10.18;100.00
12247;BME280;6186;52.022;4.692;2023-02-21T11:03:49;102104.38;;;10.19;100.00
12247;BME280;6186;52.022;4.692;2023-02-21T11:08:52;102109.66;;;10.18;100.00
12247;BME280;6186;52.022;4.692;2023-02-21T11:11:40;102100.00;;;10.17;100.00
12247;BME280;6186;52.022;4.692;2023-02-21T11:16:43;102098.25;;;10.11;100.00
12247;BME280;6186;52.022;4.692;2023-02-21T11:19:11;102096.53;;;10.10;100.00
12247;BME280;6186;52.022;4.692;2023-02-21T11:21:37;102096.50;;;10.12;100.00
12247;BME280;6186;52.022;4.692;2023-02-21T11:24:05;102083.34;;;10.12;100.00
12247;BME280;6186;52.022;4.692;2023-02-21T11:26:50;102085.97;;;10.12;100.00
12247;BME280;6186;52.022;4.692;2023-02-21T11:29:20;102086.84;;;10.11;100.00
12247;BME280;6186;52.022;4.692;2023-02-21T11:31:48;102093.84;;;10.09;100.00
12247;BME280;6186;52.022;4.692;2023-02-21T11:34:14;102081.59;;;10.02;100.00
12247;BME280;6186;52.022;4.692;2023-02-21T11:36:43;102084.22;;;10.03;100.00
12247;BME280;6186;52.022;4.692;2023-02-21T11:39:18;102072.84;;;10.03;100.00
12247;BME280;6186;52.022;4.692;2023-02-21T11:41:52;102065.81;;;10.00;100.00
12247;BME280;6186;52.022;4.692;2023-02-21T11:44:31;102069.31;;;10.04;100.00
12247;BME280;6186;52.022;4.692;2023-02-21T11:49:52;102066.66;;;10.05;100.00
12247;BME280;6186;52.022;4.692;2023-02-21T11:52:22;102070.22;;;10.03;100.00
12247;BME280;6186;52.022;4.692;2023-02-21T11:54:49;102066.69;;;10.04;100.00
12247;BME280;6186;52.022;4.692;2023-02-21T11:57:40;102064.06;;;9.99;100.00
12247;BME280;6186;52.022;4.692;2023-02-21T12:06:10;102058.78;;;10.05;100.00
12247;BME280;6186;52.022;4.692;2023-02-21T12:17:08;102058.81;;;10.10;100.00
12247;BME280;6186;52.022;4.692;2023-02-21T12:28:43;102046.44;;;10.30;100.00
12247;BME280;6186;52.022;4.692;2023-02-21T12:31:21;102042.91;;;10.32;100.00
12247;BME280;6186;52.022;4.692;2023-02-21T12:39:59;102032.44;;;10.23;100.00
12247;BME280;6186;52.022;4.692;2023-02-21T12:42:48;102039.44;;;10.27;100.00
12247;BME280;6186;52.022;4.692;2023-02-21T12:45:33;102034.16;;;10.26;100.00
12247;BME280;6186;52.022;4.692;2023-02-21T12:50:39;102031.56;;;10.23;100.00
12247;BME280;6186;52.022;4.692;2023-02-21T12:53:16;102021.94;;;10.16;100.00
12247;BME280;6186;52.022;4.692;2023-02-21T12:56:05;102027.16;;;10.22;100.00
12247;BME280;6186;52.022;4.692;2023-02-21T12:58:40;102033.31;;;10.21;100.00
12247;BME280;6186;52.022;4.692;2023-02-21T13:01:15;102021.03;;;10.18;100.00
12247;BME280;6186;52.022;4.692;2023-02-21T13:06:30;102028.03;;;10.25;100.00
12247;BME280;6186;52.022;4.692;2023-02-21T13:12:08;102023.63;;;10.29;100.00
12247;BME280;6186;52.022;4.692;2023-02-21T13:14:45;102024.50;;;10.28;100.00
12247;BME280;6186;52.022;4.692;2023-02-21T13:17:13;102020.13;;;10.27;100.00
12247;BME280;6186;52.022;4.692;2023-02-21T13:19:53;102026.28;;;10.24;100.00
12247;BME280;6186;52.022;4.692;2023-02-21T13:28:17;102026.34;;;10.14;100.00
12247;BME280;6186;52.022;4.692;2023-02-21T13:30:51;102008.78;;;10.07;100.00
12247;BME280;6186;52.022;4.692;2023-02-21T13:35:49;102011.41;;;10.07;100.00
12247;BME280;6186;52.022;4.692;2023-02-21T13:38:17;102007.06;;;10.04;100.00
12247;BME280;6186;52.022;4.692;2023-02-21T13:40:48;102007.06;;;10.01;100.00
12247;BME280;6186;52.022;4.692;2023-02-21T13:43:23;102000.91;;;9.99;100.00
12247;BME280;6186;52.022;4.692;2023-02-21T13:45:50;101993.06;;;9.95;100.00
12247;BME280;6186;52.022;4.692;2023-02-21T13:48:29;101997.44;;;9.94;100.00
12247;BME280;6186;52.022;4.692;2023-02-21T13:50:59;101992.16;;;9.96;100.00
12247;BME280;6186;52.022;4.692;2023-02-21T13:53:30;101993.94;;;9.97;100.00
12247;BME280;6186;52.022;4.692;2023-02-21T13:58:34;101997.44;;;9.99;100.00
12247;BME280;6186;52.022;4.692;2023-02-21T14:01:17;101972.03;;;9.93;100.00
12247;BME280;6186;52.022;4.692;2023-02-21T14:03:42;101987.78;;;10.02;100.00
12247;BME280;6186;52.022;4.692;2023-02-21T14:21:08;101966.78;;;9.84;100.00
12247;BME280;6186;52.022;4.692;2023-02-21T14:23:53;101974.69;;;9.87;100.00
12247;BME280;6186;52.022;4.692;2023-02-21T14:34:31;101972.94;;;9.85;100.00
12247;BME280;6186;52.022;4.692;2023-02-21T14:37:01;101979.09;;;9.84;100.00
12247;BME280;6186;52.022;4.692;2023-02-21T14:39:37;101969.44;;;9.86;100.00
12247;BME280;6186;52.022;4.692;2023-02-21T14:50:28;101968.56;;;9.81;100.00
12247;BME280;6186;52.022;4.692;2023-02-21T15:01:46;101958.13;;;9.69;100.00
12247;BME280;6186;52.022;4.692;2023-02-21T15:04:21;101964.25;;;9.72;100.00
12247;BME280;6186;52.022;4.692;2023-02-21T15:09:44;101961.59;;;9.69;100.00
12247;BME280;6186;52.022;4.692;2023-02-21T15:12:16;101960.75;;;9.69;100.00
12247;BME280;6186;52.022;4.692;2023-02-21T15:14:51;101952.00;;;9.59;100.00
12247;BME280;6186;52.022;4.692;2023-02-21T15:17:21;101960.75;;;9.66;100.00
12247;BME280;6186;52.022;4.692;2023-02-21T15:20:01;101958.09;;;9.66;100.00
12247;BME280;6186;52.022;4.692;2023-02-21T15:22:29;101959.00;;;9.66;100.00
12247;BME280;6186;52.022;4.692;2023-02-21T15:25:09;101965.13;;;9.67;100.00
12247;BME280;6186;52.022;4.692;2023-02-21T15:27:39;101955.47;;;9.67;100.00
12247;BME280;6186;52.022;4.692;2023-02-21T15:32:50;101950.25;;;9.63;100.00
12247;BME280;6186;52.022;4.692;2023-02-21T15:35:24;101953.75;;;9.62;100.00
12247;BME280;6186;52.022;4.692;2023-02-21T15:37:50;101956.38;;;9.62;100.00
12247;BME280;6186;52.022;4.692;2023-02-21T15:40:20;101956.38;;;9.63;100.00
12247;BME280;6186;52.022;4.692;2023-02-21T15:42:48;101966.00;;;9.64;100.00